sensor_id;sensor_type;location;lat;lon;timestamp;temperature;humidity
54192;DHT22;40101;53.002;6.488;2023-09-18T00:00:24;17.20;99.90
54192;DHT22;40101;53.002;6.488;2023-09-18T00:02:50;17.20;99.90
54192;DHT22;40101;53.002;6.488;2023-09-18T00:05:15;17.20;99.90
54192;DHT22;40101;53.002;6.488;2023-09-18T00:07:44;17.20;99.90
54192;DHT22;40101;53.002;6.488;2023-09-18T00:10:11;17.20;99.90
54192;DHT22;40101;53.002;6.488;2023-09-18T00:12:37;17.10;99.90
54192;DHT22;40101;53.002;6.488;2023-09-18T00:15:03;17.20;99.90
54192;DHT22;40101;53.002;6.488;2023-09-18T00:17:29;17.10;99.90
54192;DHT22;40101;53.002;6.488;2023-09-18T00:19:55;17.10;99.90
54192;DHT22;40101;53.002;6.488;2023-09-18T00:22:20;17.10;99.90
54192;DHT22;40101;53.002;6.488;2023-09-18T00:24:47;17.00;99.90
54192;DHT22;40101;53.002;6.488;2023-09-18T00:27:13;17.10;99.90
54192;DHT22;40101;53.002;6.488;2023-09-18T00:29:39;17.10;99.90
54192;DHT22;40101;53.002;6.488;2023-09-18T00:32:08;17.10;99.90
54192;DHT22;40101;53.002;6.488;2023-09-18T00:34:33;17.10;99.90
54192;DHT22;40101;53.002;6.488;2023-09-18T00:36:59;17.10;99.90
54192;DHT22;40101;53.002;6.488;2023-09-18T00:39:25;17.20;99.90
54192;DHT22;40101;53.002;6.488;2023-09-18T00:41:51;17.10;99.90
54192;DHT22;40101;53.002;6.488;2023-09-18T00:44:20;17.10;99.90
54192;DHT22;40101;53.002;6.488;2023-09-18T00:46:46;17.20;99.90
54192;DHT22;40101;53.002;6.488;2023-09-18T00:49:12;17.20;99.90
54192;DHT22;40101;53.002;6.488;2023-09-18T00:51:39;17.20;99.90
54192;DHT22;40101;53.002;6.488;2023-09-18T00:54:05;17.20;99.90
54192;DHT22;40101;53.002;6.488;2023-09-18T00:56:33;17.20;99.90
54192;DHT22;40101;53.002;6.488;2023-09-18T00:58:59;17.30;99.90
54192;DHT22;40101;53.002;6.488;2023-09-18T01:01:25;17.30;99.90
54192;DHT22;40101;53.002;6.488;2023-09-18T01:03:51;17.30;99.90
54192;DHT22;40101;53.002;6.488;2023-09-18T01:06:19;17.30;99.90
54192;DHT22;40101;53.002;6.488;2023-09-18T01:08:47;17.30;99.90
54192;DHT22;40101;53.002;6.488;2023-09-18T01:13:56;17.50;99.90
54192;DHT22;40101;53.002;6.488;2023-09-18T01:16:30;17.40;99.90
54192;DHT22;40101;53.002;6.488;2023-09-18T01:18:57;17.50;99.90
54192;DHT22;40101;53.002;6.488;2023-09-18T01:21:23;17.50;99.90
54192;DHT22;40101;53.002;6.488;2023-09-18T01:23:49;17.50;99.90
54192;DHT22;40101;53.002;6.488;2023-09-18T01:26:14;17.50;99.90
54192;DHT22;40101;53.002;6.488;2023-09-18T01:28:40;17.40;99.90
54192;DHT22;40101;53.002;6.488;2023-09-18T01:31:06;17.50;99.90
54192;DHT22;40101;53.002;6.488;2023-09-18T01:33:33;17.50;99.90
54192;DHT22;40101;53.002;6.488;2023-09-18T01:35:59;17.50;99.90
54192;DHT22;40101;53.002;6.488;2023-09-18T01:38:26;17.50;99.90
54192;DHT22;40101;53.002;6.488;2023-09-18T01:40:53;17.40;99.90
54192;DHT22;40101;53.002;6.488;2023-09-18T01:43:19;17.40;99.90
54192;DHT22;40101;53.002;6.488;2023-09-18T01:45:46;17.40;99.90
54192;DHT22;40101;53.002;6.488;2023-09-18T01:48:11;17.50;99.90
54192;DHT22;40101;53.002;6.488;2023-09-18T01:50:37;17.40;99.90
54192;DHT22;40101;53.002;6.488;2023-09-18T01:53:05;17.50;99.90
54192;DHT22;40101;53.002;6.488;2023-09-18T01:55:31;17.50;99.90
54192;DHT22;40101;53.002;6.488;2023-09-18T01:57:58;17.60;99.90
54192;DHT22;40101;53.002;6.488;2023-09-18T02:00:24;17.60;99.90
54192;DHT22;40101;53.002;6.488;2023-09-18T02:02:50;17.70;99.90
54192;DHT22;40101;53.002;6.488;2023-09-18T02:05:15;17.70;99.90
54192;DHT22;40101;53.002;6.488;2023-09-18T02:07:41;17.70;99.90
54192;DHT22;40101;53.002;6.488;2023-09-18T02:10:07;17.60;99.90
54192;DHT22;40101;53.002;6.488;2023-09-18T02:12:33;17.70;99.90
54192;DHT22;40101;53.002;6.488;2023-09-18T02:14:58;17.70;99.90
54192;DHT22;40101;53.002;6.488;2023-09-18T02:17:26;17.70;99.90
54192;DHT22;40101;53.002;6.488;2023-09-18T02:19:52;17.80;99.90
54192;DHT22;40101;53.002;6.488;2023-09-18T02:22:17;17.70;99.90
54192;DHT22;40101;53.002;6.488;2023-09-18T02:24:43;17.70;99.90
54192;DHT22;40101;53.002;6.488;2023-09-18T02:27:08;17.70;99.90
54192;DHT22;40101;53.002;6.488;2023-09-18T02:29:36;17.70;99.90
54192;DHT22;40101;53.002;6.488;2023-09-18T02:32:01;17.60;99.90
54192;DHT22;40101;53.002;6.488;2023-09-18T02:34:27;17.70;99.90
54192;DHT22;40101;53.002;6.488;2023-09-18T02:36:53;17.80;99.90
54192;DHT22;40101;53.002;6.488;2023-09-18T02:39:19;17.80;99.90
54192;DHT22;40101;53.002;6.488;2023-09-18T02:41:44;17.70;99.90
54192;DHT22;40101;53.002;6.488;2023-09-18T02:44:10;17.80;99.90
54192;DHT22;40101;53.002;6.488;2023-09-18T02:46:37;17.80;99.90
54192;DHT22;40101;53.002;6.488;2023-09-18T02:49:03;17.80;99.90
54192;DHT22;40101;53.002;6.488;2023-09-18T02:51:28;17.80;99.90
54192;DHT22;40101;53.002;6.488;2023-09-18T02:53:57;17.80;99.90
54192;DHT22;40101;53.002;6.488;2023-09-18T02:56:22;17.80;99.90
54192;DHT22;40101;53.002;6.488;2023-09-18T02:58:48;17.80;99.90
54192;DHT22;40101;53.002;6.488;2023-09-18T03:01:13;17.80;99.90
54192;DHT22;40101;53.002;6.488;2023-09-18T03:03:39;17.80;99.90
54192;DHT22;40101;53.002;6.488;2023-09-18T03:06:07;17.80;99.90
54192;DHT22;40101;53.002;6.488;2023-09-18T03:08:33;17.80;99.90
54192;DHT22;40101;53.002;6.488;2023-09-18T03:11:00;17.80;99.90
54192;DHT22;40101;53.002;6.488;2023-09-18T03:13:27;17.80;99.90
54192;DHT22;40101;53.002;6.488;2023-09-18T03:15:53;17.70;99.90
54192;DHT22;40101;53.002;6.488;2023-09-18T03:18:19;17.80;99.90
54192;DHT22;40101;53.002;6.488;2023-09-18T03:20:44;17.80;99.90
54192;DHT22;40101;53.002;6.488;2023-09-18T03:23:11;17.80;99.90
54192;DHT22;40101;53.002;6.488;2023-09-18T03:25:37;17.80;99.90
54192;DHT22;40101;53.002;6.488;2023-09-18T03:28:05;17.70;99.90
54192;DHT22;40101;53.002;6.488;2023-09-18T03:30:31;17.80;99.90
54192;DHT22;40101;53.002;6.488;2023-09-18T03:32:57;17.90;99.90
54192;DHT22;40101;53.002;6.488;2023-09-18T03:35:23;17.70;99.90
54192;DHT22;40101;53.002;6.488;2023-09-18T03:37:50;17.90;99.90
54192;DHT22;40101;53.002;6.488;2023-09-18T03:40:17;17.90;99.90
54192;DHT22;40101;53.002;6.488;2023-09-18T03:42:43;17.90;99.90
54192;DHT22;40101;53.002;6.488;2023-09-18T03:45:09;18.00;99.90
54192;DHT22;40101;53.002;6.488;2023-09-18T03:47:36;17.80;99.90
54192;DHT22;40101;53.002;6.488;2023-09-18T03:50:06;18.00;99.90
54192;DHT22;40101;53.002;6.488;2023-09-18T03:52:32;17.90;99.90
54192;DHT22;40101;53.002;6.488;2023-09-18T03:54:58;17.90;99.90
54192;DHT22;40101;53.002;6.488;2023-09-18T03:57:24;17.90;99.90
54192;DHT22;40101;53.002;6.488;2023-09-18T03:59:49;17.90;99.90
54192;DHT22;40101;53.002;6.488;2023-09-18T04:02:15;18.00;99.90
54192;DHT22;40101;53.002;6.488;2023-09-18T04:04:40;18.00;99.90
54192;DHT22;40101;53.002;6.488;2023-09-18T04:07:06;18.00;99.90
54192;DHT22;40101;53.002;6.488;2023-09-18T04:09:32;18.00;99.90
54192;DHT22;40101;53.002;6.488;2023-09-18T04:12:00;18.00;99.90
54192;DHT22;40101;53.002;6.488;2023-09-18T04:14:26;18.00;99.90
54192;DHT22;40101;53.002;6.488;2023-09-18T04:16:52;18.00;99.90
54192;DHT22;40101;53.002;6.488;2023-09-18T04:19:17;18.00;99.90
54192;DHT22;40101;53.002;6.488;2023-09-18T04:21:43;18.00;99.90
54192;DHT22;40101;53.002;6.488;2023-09-18T04:24:09;18.00;99.90
54192;DHT22;40101;53.002;6.488;2023-09-18T04:26:34;18.10;99.90
54192;DHT22;40101;53.002;6.488;2023-09-18T04:29:00;18.00;99.90
54192;DHT22;40101;53.002;6.488;2023-09-18T04:31:27;18.10;99.90
54192;DHT22;40101;53.002;6.488;2023-09-18T04:33:53;18.00;99.90
54192;DHT22;40101;53.002;6.488;2023-09-18T04:36:19;18.10;99.90
54192;DHT22;40101;53.002;6.488;2023-09-18T04:38:45;18.10;99.90
54192;DHT22;40101;53.002;6.488;2023-09-18T04:41:10;18.10;99.90
54192;DHT22;40101;53.002;6.488;2023-09-18T04:43:37;18.10;99.90
54192;DHT22;40101;53.002;6.488;2023-09-18T04:46:06;18.20;99.90
54192;DHT22;40101;53.002;6.488;2023-09-18T04:48:32;18.20;99.90
54192;DHT22;40101;53.002;6.488;2023-09-18T04:50:59;18.20;99.90
54192;DHT22;40101;53.002;6.488;2023-09-18T04:53:25;18.30;99.90
54192;DHT22;40101;53.002;6.488;2023-09-18T04:55:51;18.40;99.90
54192;DHT22;40101;53.002;6.488;2023-09-18T04:58:17;18.30;99.90
54192;DHT22;40101;53.002;6.488;2023-09-18T05:00:43;18.30;99.90
54192;DHT22;40101;53.002;6.488;2023-09-18T05:03:11;18.30;99.90
54192;DHT22;40101;53.002;6.488;2023-09-18T05:05:37;18.30;99.90
54192;DHT22;40101;53.002;6.488;2023-09-18T05:08:06;18.20;99.90
54192;DHT22;40101;53.002;6.488;2023-09-18T05:10:56;18.30;99.90
54192;DHT22;40101;53.002;6.488;2023-09-18T05:13:23;18.30;99.90
54192;DHT22;40101;53.002;6.488;2023-09-18T05:16:00;18.30;99.90
54192;DHT22;40101;53.002;6.488;2023-09-18T05:18:28;18.30;99.90
54192;DHT22;40101;53.002;6.488;2023-09-18T05:21:06;18.30;99.90
54192;DHT22;40101;53.002;6.488;2023-09-18T05:23:46;18.40;99.90
54192;DHT22;40101;53.002;6.488;2023-09-18T05:26:22;18.40;99.90
54192;DHT22;40101;53.002;6.488;2023-09-18T05:29:14;18.40;99.90
54192;DHT22;40101;53.002;6.488;2023-09-18T05:31:41;18.40;99.90
54192;DHT22;40101;53.002;6.488;2023-09-18T05:34:06;18.40;99.90
54192;DHT22;40101;53.002;6.488;2023-09-18T05:36:32;18.50;99.90
54192;DHT22;40101;53.002;6.488;2023-09-18T05:38:57;18.40;99.90
54192;DHT22;40101;53.002;6.488;2023-09-18T05:41:23;18.50;99.90
54192;DHT22;40101;53.002;6.488;2023-09-18T05:43:51;18.50;99.90
54192;DHT22;40101;53.002;6.488;2023-09-18T05:46:17;18.50;99.90
54192;DHT22;40101;53.002;6.488;2023-09-18T05:48:43;18.50;99.90
54192;DHT22;40101;53.002;6.488;2023-09-18T05:51:08;18.50;99.90
54192;DHT22;40101;53.002;6.488;2023-09-18T05:53:34;18.40;99.90
54192;DHT22;40101;53.002;6.488;2023-09-18T05:56:00;18.50;99.90
54192;DHT22;40101;53.002;6.488;2023-09-18T05:58:32;18.50;99.90
54192;DHT22;40101;53.002;6.488;2023-09-18T06:01:01;18.50;99.90
54192;DHT22;40101;53.002;6.488;2023-09-18T06:03:27;18.50;99.90
54192;DHT22;40101;53.002;6.488;2023-09-18T06:05:56;18.60;99.90
54192;DHT22;40101;53.002;6.488;2023-09-18T06:08:21;18.60;99.90
54192;DHT22;40101;53.002;6.488;2023-09-18T06:10:48;18.60;99.90
54192;DHT22;40101;53.002;6.488;2023-09-18T06:13:13;18.60;99.90
54192;DHT22;40101;53.002;6.488;2023-09-18T06:15:39;18.60;99.90
54192;DHT22;40101;53.002;6.488;2023-09-18T06:18:05;18.60;99.90
54192;DHT22;40101;53.002;6.488;2023-09-18T06:20:32;18.70;99.90
54192;DHT22;40101;53.002;6.488;2023-09-18T06:22:57;18.60;99.90
54192;DHT22;40101;53.002;6.488;2023-09-18T06:25:23;18.70;99.90
54192;DHT22;40101;53.002;6.488;2023-09-18T06:27:48;18.70;99.90
54192;DHT22;40101;53.002;6.488;2023-09-18T06:30:14;18.70;99.90
54192;DHT22;40101;53.002;6.488;2023-09-18T06:32:40;18.70;99.90
54192;DHT22;40101;53.002;6.488;2023-09-18T06:35:06;18.70;99.90
54192;DHT22;40101;53.002;6.488;2023-09-18T06:37:31;18.70;99.90
54192;DHT22;40101;53.002;6.488;2023-09-18T06:39:58;18.60;99.90
54192;DHT22;40101;53.002;6.488;2023-09-18T06:42:23;18.70;99.90
54192;DHT22;40101;53.002;6.488;2023-09-18T06:44:49;18.70;99.90
54192;DHT22;40101;53.002;6.488;2023-09-18T06:47:15;18.70;99.90
54192;DHT22;40101;53.002;6.488;2023-09-18T06:49:41;18.60;99.90
54192;DHT22;40101;53.002;6.488;2023-09-18T06:52:08;18.60;99.90
54192;DHT22;40101;53.002;6.488;2023-09-18T06:54:34;18.60;99.90
54192;DHT22;40101;53.002;6.488;2023-09-18T06:56:59;18.50;99.90
54192;DHT22;40101;53.002;6.488;2023-09-18T06:59:25;18.50;99.90
54192;DHT22;40101;53.002;6.488;2023-09-18T07:01:50;18.60;99.90
54192;DHT22;40101;53.002;6.488;2023-09-18T07:04:16;18.50;99.90
54192;DHT22;40101;53.002;6.488;2023-09-18T07:06:42;18.40;99.90
54192;DHT22;40101;53.002;6.488;2023-09-18T07:09:07;18.40;99.90
54192;DHT22;40101;53.002;6.488;2023-09-18T07:11:37;18.50;99.90
54192;DHT22;40101;53.002;6.488;2023-09-18T07:14:03;18.40;99.90
54192;DHT22;40101;53.002;6.488;2023-09-18T07:16:32;18.40;99.90
54192;DHT22;40101;53.002;6.488;2023-09-18T07:18:57;18.40;99.90
54192;DHT22;40101;53.002;6.488;2023-09-18T07:21:23;18.40;99.90
54192;DHT22;40101;53.002;6.488;2023-09-18T07:23:48;18.30;99.90
54192;DHT22;40101;53.002;6.488;2023-09-18T07:26:14;18.30;99.90
54192;DHT22;40101;53.002;6.488;2023-09-18T07:28:40;18.20;99.90
54192;DHT22;40101;53.002;6.488;2023-09-18T07:31:07;18.20;99.90
54192;DHT22;40101;53.002;6.488;2023-09-18T07:33:34;18.20;99.90
54192;DHT22;40101;53.002;6.488;2023-09-18T07:36:00;18.20;99.90
54192;DHT22;40101;53.002;6.488;2023-09-18T07:38:26;18.10;99.90
54192;DHT22;40101;53.002;6.488;2023-09-18T07:40:51;18.20;99.90
54192;DHT22;40101;53.002;6.488;2023-09-18T07:43:17;18.20;99.90
54192;DHT22;40101;53.002;6.488;2023-09-18T07:45:42;18.10;99.90
54192;DHT22;40101;53.002;6.488;2023-09-18T07:48:08;18.20;99.90
54192;DHT22;40101;53.002;6.488;2023-09-18T07:50:35;18.30;99.90
54192;DHT22;40101;53.002;6.488;2023-09-18T07:53:01;18.20;99.90
54192;DHT22;40101;53.002;6.488;2023-09-18T07:55:27;18.30;99.90
54192;DHT22;40101;53.002;6.488;2023-09-18T07:57:53;18.40;99.90
54192;DHT22;40101;53.002;6.488;2023-09-18T08:00:19;18.30;99.90
54192;DHT22;40101;53.002;6.488;2023-09-18T08:02:46;18.30;99.90
54192;DHT22;40101;53.002;6.488;2023-09-18T08:05:14;18.40;99.90
54192;DHT22;40101;53.002;6.488;2023-09-18T08:07:40;18.30;99.90
54192;DHT22;40101;53.002;6.488;2023-09-18T08:10:06;18.40;99.90
54192;DHT22;40101;53.002;6.488;2023-09-18T08:12:34;18.40;99.90
54192;DHT22;40101;53.002;6.488;2023-09-18T08:15:00;18.40;99.90
54192;DHT22;40101;53.002;6.488;2023-09-18T08:17:27;18.40;99.90
54192;DHT22;40101;53.002;6.488;2023-09-18T08:19:52;18.40;99.90
54192;DHT22;40101;53.002;6.488;2023-09-18T08:22:19;18.30;99.90
54192;DHT22;40101;53.002;6.488;2023-09-18T08:24:47;18.30;99.90
54192;DHT22;40101;53.002;6.488;2023-09-18T08:27:14;18.40;99.90
54192;DHT22;40101;53.002;6.488;2023-09-18T08:29:42;18.40;99.90
54192;DHT22;40101;53.002;6.488;2023-09-18T08:32:09;18.40;99.90
54192;DHT22;40101;53.002;6.488;2023-09-18T08:34:34;18.40;99.90
54192;DHT22;40101;53.002;6.488;2023-09-18T08:37:00;18.50;99.90
54192;DHT22;40101;53.002;6.488;2023-09-18T08:39:25;18.50;99.90
54192;DHT22;40101;53.002;6.488;2023-09-18T08:41:58;18.50;99.90
54192;DHT22;40101;53.002;6.488;2023-09-18T08:44:25;18.60;99.90
54192;DHT22;40101;53.002;6.488;2023-09-18T08:46:53;18.70;99.90
54192;DHT22;40101;53.002;6.488;2023-09-18T08:49:21;18.80;99.90
54192;DHT22;40101;53.002;6.488;2023-09-18T08:51:50;18.80;99.90
54192;DHT22;40101;53.002;6.488;2023-09-18T08:54:16;18.80;99.90
54192;DHT22;40101;53.002;6.488;2023-09-18T08:56:42;18.80;99.90
54192;DHT22;40101;53.002;6.488;2023-09-18T08:59:08;18.80;99.90
54192;DHT22;40101;53.002;6.488;2023-09-18T09:01:34;18.80;99.90
54192;DHT22;40101;53.002;6.488;2023-09-18T09:04:00;18.80;99.90
54192;DHT22;40101;53.002;6.488;2023-09-18T09:06:26;18.80;99.90
54192;DHT22;40101;53.002;6.488;2023-09-18T09:08:51;18.80;99.90
54192;DHT22;40101;53.002;6.488;2023-09-18T09:11:17;18.80;99.90
54192;DHT22;40101;53.002;6.488;2023-09-18T09:13:44;18.70;99.90
54192;DHT22;40101;53.002;6.488;2023-09-18T09:16:11;18.80;99.90
54192;DHT22;40101;53.002;6.488;2023-09-18T09:18:50;18.80;99.90
54192;DHT22;40101;53.002;6.488;2023-09-18T09:21:16;18.90;99.90
54192;DHT22;40101;53.002;6.488;2023-09-18T09:23:52;18.90;99.90
54192;DHT22;40101;53.002;6.488;2023-09-18T09:26:20;18.90;99.90
54192;DHT22;40101;53.002;6.488;2023-09-18T09:28:46;19.00;99.90
54192;DHT22;40101;53.002;6.488;2023-09-18T09:31:27;19.10;99.90
54192;DHT22;40101;53.002;6.488;2023-09-18T09:33:53;19.20;99.90
54192;DHT22;40101;53.002;6.488;2023-09-18T09:36:22;19.20;99.90
54192;DHT22;40101;53.002;6.488;2023-09-18T09:38:48;19.30;99.90
54192;DHT22;40101;53.002;6.488;2023-09-18T09:41:19;19.40;99.90
54192;DHT22;40101;53.002;6.488;2023-09-18T09:43:45;19.40;99.90
54192;DHT22;40101;53.002;6.488;2023-09-18T09:46:16;19.40;99.90
54192;DHT22;40101;53.002;6.488;2023-09-18T09:49:04;19.50;99.90
54192;DHT22;40101;53.002;6.488;2023-09-18T09:51:30;19.50;99.90
54192;DHT22;40101;53.002;6.488;2023-09-18T09:53:57;19.60;99.90
54192;DHT22;40101;53.002;6.488;2023-09-18T09:56:41;19.80;99.90
54192;DHT22;40101;53.002;6.488;2023-09-18T09:59:06;20.10;99.90
54192;DHT22;40101;53.002;6.488;2023-09-18T10:01:37;20.10;99.90
54192;DHT22;40101;53.002;6.488;2023-09-18T10:04:05;20.20;99.90
54192;DHT22;40101;53.002;6.488;2023-09-18T10:06:36;20.20;99.90
54192;DHT22;40101;53.002;6.488;2023-09-18T10:09:03;20.50;99.90
54192;DHT22;40101;53.002;6.488;2023-09-18T10:11:30;21.00;99.90
54192;DHT22;40101;53.002;6.488;2023-09-18T10:14:07;21.10;99.90
54192;DHT22;40101;53.002;6.488;2023-09-18T10:16:36;21.40;99.90
54192;DHT22;40101;53.002;6.488;2023-09-18T10:19:21;21.40;99.90
54192;DHT22;40101;53.002;6.488;2023-09-18T10:24:46;21.40;99.90
54192;DHT22;40101;53.002;6.488;2023-09-18T10:27:13;21.30;99.90
54192;DHT22;40101;53.002;6.488;2023-09-18T10:29:41;21.30;99.90
54192;DHT22;40101;53.002;6.488;2023-09-18T10:32:07;21.50;99.90
54192;DHT22;40101;53.002;6.488;2023-09-18T10:34:34;21.50;99.90
54192;DHT22;40101;53.002;6.488;2023-09-18T10:37:01;21.60;99.90
54192;DHT22;40101;53.002;6.488;2023-09-18T10:39:31;21.80;99.90
54192;DHT22;40101;53.002;6.488;2023-09-18T10:42:01;21.90;99.90
54192;DHT22;40101;53.002;6.488;2023-09-18T10:44:28;22.00;99.90
54192;DHT22;40101;53.002;6.488;2023-09-18T10:46:54;22.10;99.90
54192;DHT22;40101;53.002;6.488;2023-09-18T10:49:21;22.20;99.90
54192;DHT22;40101;53.002;6.488;2023-09-18T10:51:48;22.40;99.90
54192;DHT22;40101;53.002;6.488;2023-09-18T10:54:21;22.20;99.90
54192;DHT22;40101;53.002;6.488;2023-09-18T10:56:48;22.20;99.90
54192;DHT22;40101;53.002;6.488;2023-09-18T10:59:15;22.10;99.90
54192;DHT22;40101;53.002;6.488;2023-09-18T11:01:41;22.10;99.90
54192;DHT22;40101;53.002;6.488;2023-09-18T11:04:08;21.90;99.90
54192;DHT22;40101;53.002;6.488;2023-09-18T11:09:27;21.40;99.90
54192;DHT22;40101;53.002;6.488;2023-09-18T11:14:43;21.00;99.90
54192;DHT22;40101;53.002;6.488;2023-09-18T11:17:32;20.90;99.90
54192;DHT22;40101;53.002;6.488;2023-09-18T11:20:17;20.90;99.90
54192;DHT22;40101;53.002;6.488;2023-09-18T11:23:09;21.10;99.90
54192;DHT22;40101;53.002;6.488;2023-09-18T11:25:36;21.40;99.90
54192;DHT22;40101;53.002;6.488;2023-09-18T11:28:03;21.70;99.90
54192;DHT22;40101;53.002;6.488;2023-09-18T11:30:36;22.00;99.90
54192;DHT22;40101;53.002;6.488;2023-09-18T11:33:05;22.20;99.90
54192;DHT22;40101;53.002;6.488;2023-09-18T11:35:32;22.10;99.90
54192;DHT22;40101;53.002;6.488;2023-09-18T11:38:05;21.90;99.90
54192;DHT22;40101;53.002;6.488;2023-09-18T11:40:33;21.70;99.90
54192;DHT22;40101;53.002;6.488;2023-09-18T11:43:26;21.40;99.90
54192;DHT22;40101;53.002;6.488;2023-09-18T11:45:56;21.30;99.90
54192;DHT22;40101;53.002;6.488;2023-09-18T11:48:23;21.30;99.90
54192;DHT22;40101;53.002;6.488;2023-09-18T11:50:53;21.20;99.90
54192;DHT22;40101;53.002;6.488;2023-09-18T11:53:20;21.20;99.90
54192;DHT22;40101;53.002;6.488;2023-09-18T11:55:46;21.40;99.90
54192;DHT22;40101;53.002;6.488;2023-09-18T11:58:12;21.60;99.90
54192;DHT22;40101;53.002;6.488;2023-09-18T12:00:38;21.70;99.90
54192;DHT22;40101;53.002;6.488;2023-09-18T12:05:44;22.40;99.90
54192;DHT22;40101;53.002;6.488;2023-09-18T12:08:11;22.50;99.90
54192;DHT22;40101;53.002;6.488;2023-09-18T12:10:37;22.60;99.90
54192;DHT22;40101;53.002;6.488;2023-09-18T12:13:06;22.70;99.90
54192;DHT22;40101;53.002;6.488;2023-09-18T12:15:34;22.70;99.90
54192;DHT22;40101;53.002;6.488;2023-09-18T12:18:10;22.80;99.90
54192;DHT22;40101;53.002;6.488;2023-09-18T12:20:45;23.00;99.90
54192;DHT22;40101;53.002;6.488;2023-09-18T12:23:11;22.70;99.90
54192;DHT22;40101;53.002;6.488;2023-09-18T12:25:38;22.50;99.90
54192;DHT22;40101;53.002;6.488;2023-09-18T12:28:06;22.20;99.90
54192;DHT22;40101;53.002;6.488;2023-09-18T12:30:33;22.10;99.90
54192;DHT22;40101;53.002;6.488;2023-09-18T12:32:59;22.10;99.90
54192;DHT22;40101;53.002;6.488;2023-09-18T12:35:29;22.20;99.90
54192;DHT22;40101;53.002;6.488;2023-09-18T12:37:57;22.30;99.90
54192;DHT22;40101;53.002;6.488;2023-09-18T12:40:24;22.40;99.90
54192;DHT22;40101;53.002;6.488;2023-09-18T12:42:51;22.50;99.90
54192;DHT22;40101;53.002;6.488;2023-09-18T12:45:17;22.60;99.90
54192;DHT22;40101;53.002;6.488;2023-09-18T12:47:43;22.80;99.90
54192;DHT22;40101;53.002;6.488;2023-09-18T12:50:12;23.10;99.90
54192;DHT22;40101;53.002;6.488;2023-09-18T12:52:38;23.10;99.90
54192;DHT22;40101;53.002;6.488;2023-09-18T12:55:04;23.10;99.90
54192;DHT22;40101;53.002;6.488;2023-09-18T12:57:32;23.10;99.90
54192;DHT22;40101;53.002;6.488;2023-09-18T12:59:58;23.10;99.90
54192;DHT22;40101;53.002;6.488;2023-09-18T13:02:24;23.00;99.90
54192;DHT22;40101;53.002;6.488;2023-09-18T13:04:56;23.20;99.90
54192;DHT22;40101;53.002;6.488;2023-09-18T13:07:23;23.00;99.90
54192;DHT22;40101;53.002;6.488;2023-09-18T13:12:38;22.70;99.90
54192;DHT22;40101;53.002;6.488;2023-09-18T13:15:04;22.50;99.90
54192;DHT22;40101;53.002;6.488;2023-09-18T13:17:44;22.60;99.90
54192;DHT22;40101;53.002;6.488;2023-09-18T13:20:17;22.70;99.90
54192;DHT22;40101;53.002;6.488;2023-09-18T13:22:50;22.90;99.90
54192;DHT22;40101;53.002;6.488;2023-09-18T13:25:39;23.10;99.90
54192;DHT22;40101;53.002;6.488;2023-09-18T13:28:08;23.10;99.90
54192;DHT22;40101;53.002;6.488;2023-09-18T13:30:36;23.00;99.90
54192;DHT22;40101;53.002;6.488;2023-09-18T13:33:09;22.90;99.90
54192;DHT22;40101;53.002;6.488;2023-09-18T13:35:37;22.70;99.90
54192;DHT22;40101;53.002;6.488;2023-09-18T13:38:04;22.50;99.90
54192;DHT22;40101;53.002;6.488;2023-09-18T13:40:31;22.50;99.90
54192;DHT22;40101;53.002;6.488;2023-09-18T13:42:58;22.50;99.90
54192;DHT22;40101;53.002;6.488;2023-09-18T13:45:24;22.60;99.90
54192;DHT22;40101;53.002;6.488;2023-09-18T13:47:50;22.80;99.90
54192;DHT22;40101;53.002;6.488;2023-09-18T13:50:16;22.80;99.90
54192;DHT22;40101;53.002;6.488;2023-09-18T13:52:41;22.70;99.90
54192;DHT22;40101;53.002;6.488;2023-09-18T13:55:07;22.50;99.90
54192;DHT22;40101;53.002;6.488;2023-09-18T13:57:34;22.30;99.90
54192;DHT22;40101;53.002;6.488;2023-09-18T14:00:02;22.40;99.90
54192;DHT22;40101;53.002;6.488;2023-09-18T14:02:32;22.50;99.90
54192;DHT22;40101;53.002;6.488;2023-09-18T14:04:58;22.60;99.90
54192;DHT22;40101;53.002;6.488;2023-09-18T14:07:24;22.70;99.90
54192;DHT22;40101;53.002;6.488;2023-09-18T14:09:49;22.80;99.90
54192;DHT22;40101;53.002;6.488;2023-09-18T14:12:15;22.80;99.90
54192;DHT22;40101;53.002;6.488;2023-09-18T14:15:07;22.70;99.90
54192;DHT22;40101;53.002;6.488;2023-09-18T14:17:37;22.80;99.90
54192;DHT22;40101;53.002;6.488;2023-09-18T14:20:04;22.80;99.90
54192;DHT22;40101;53.002;6.488;2023-09-18T14:22:35;22.60;99.90
54192;DHT22;40101;53.002;6.488;2023-09-18T14:25:01;22.50;99.90
54192;DHT22;40101;53.002;6.488;2023-09-18T14:27:32;22.50;99.90
54192;DHT22;40101;53.002;6.488;2023-09-18T14:29:57;22.40;99.90
54192;DHT22;40101;53.002;6.488;2023-09-18T14:32:23;22.40;99.90
54192;DHT22;40101;53.002;6.488;2023-09-18T14:34:49;22.30;99.90
54192;DHT22;40101;53.002;6.488;2023-09-18T14:37:14;22.40;99.90
54192;DHT22;40101;53.002;6.488;2023-09-18T14:39:40;22.50;99.90
54192;DHT22;40101;53.002;6.488;2023-09-18T14:42:06;22.50;99.90
54192;DHT22;40101;53.002;6.488;2023-09-18T14:44:31;22.70;99.90
54192;DHT22;40101;53.002;6.488;2023-09-18T14:46:58;22.80;99.90
54192;DHT22;40101;53.002;6.488;2023-09-18T14:49:25;22.80;99.90
54192;DHT22;40101;53.002;6.488;2023-09-18T14:51:53;22.70;99.90
54192;DHT22;40101;53.002;6.488;2023-09-18T14:54:19;22.90;99.90
54192;DHT22;40101;53.002;6.488;2023-09-18T14:56:45;23.00;99.90
54192;DHT22;40101;53.002;6.488;2023-09-18T14:59:12;23.00;99.90
54192;DHT22;40101;53.002;6.488;2023-09-18T15:01:38;22.90;99.90
54192;DHT22;40101;53.002;6.488;2023-09-18T15:04:04;22.80;99.90
54192;DHT22;40101;53.002;6.488;2023-09-18T15:06:30;22.70;99.90
54192;DHT22;40101;53.002;6.488;2023-09-18T15:08:56;22.60;99.90
54192;DHT22;40101;53.002;6.488;2023-09-18T15:11:22;22.60;99.90
54192;DHT22;40101;53.002;6.488;2023-09-18T15:13:49;22.50;99.90
54192;DHT22;40101;53.002;6.488;2023-09-18T15:16:14;22.60;99.90
54192;DHT22;40101;53.002;6.488;2023-09-18T15:18:40;22.60;99.90
54192;DHT22;40101;53.002;6.488;2023-09-18T15:21:06;22.60;99.90
54192;DHT22;40101;53.002;6.488;2023-09-18T15:23:32;22.60;99.90
54192;DHT22;40101;53.002;6.488;2023-09-18T15:25:58;22.40;99.90
54192;DHT22;40101;53.002;6.488;2023-09-18T15:28:23;22.40;99.90
54192;DHT22;40101;53.002;6.488;2023-09-18T15:30:53;22.40;99.90
54192;DHT22;40101;53.002;6.488;2023-09-18T15:33:19;22.30;99.90
54192;DHT22;40101;53.002;6.488;2023-09-18T15:35:48;22.30;99.90
54192;DHT22;40101;53.002;6.488;2023-09-18T15:38:14;22.20;99.90
54192;DHT22;40101;53.002;6.488;2023-09-18T15:40:39;22.30;99.90
54192;DHT22;40101;53.002;6.488;2023-09-18T15:43:05;22.20;99.90
54192;DHT22;40101;53.002;6.488;2023-09-18T15:45:31;22.20;99.90
54192;DHT22;40101;53.002;6.488;2023-09-18T15:47:56;22.20;99.90